Time;durP1;ratioP1;P1;durP2;ratioP2;P2;SDS_P1;SDS_P2;PMS_P1;PMS_P2;Temp;Humidity;BMP_temperature;BMP_pressure;BME280_temperature;BME280_humidity;BME280_pressure;Samples;Min_cycle;Max_cycle;Signal;HPM_P1;HPM_P2
2023/03/05 00:02:24;;;;;;;0.60;0.60;;;;;;;-2.13;44.35;100092.34;5024701;28;20033;-62
2023/03/05 00:04:50;;;;;;;0.50;0.50;;;;;;;-2.13;44.39;100094.03;5024683;28;20041;-63
2023/03/05 00:07:15;;;;;;;0.60;0.60;;;;;;;-2.14;44.33;100089.75;5025045;28;20022;-64
2023/03/05 00:09:41;;;;;;;0.60;0.60;;;;;;;-2.15;44.40;100085.47;5024634;28;20053;-63
2023/03/05 00:12:06;;;;;;;0.60;0.60;;;;;;;-2.16;45.05;100086.28;5024852;28;20026;-62
2023/03/05 00:14:32;;;;;;;0.55;0.55;;;;;;;-2.14;44.87;100089.75;5024013;28;20598;-63
2023/03/05 00:16:57;;;;;;;0.70;0.70;;;;;;;-2.15;44.68;100090.53;5024073;28;20046;-63
2023/03/05 00:19:22;;;;;;;0.57;0.57;;;;;;;-2.15;44.80;100088.00;5024008;28;20064;-63
2023/03/05 00:21:48;;;;;;;0.60;0.60;;;;;;;-2.15;44.79;100085.47;5024303;28;20022;-63
2023/03/05 00:24:16;;;;;;;0.60;0.60;;;;;;;-2.18;44.75;100078.59;5023160;28;20097;-62
2023/03/05 00:26:43;;;;;;;0.70;0.70;;;;;;;-2.17;45.08;100079.47;5023881;28;20471;-63
2023/03/05 00:29:13;;;;;;;0.70;0.70;;;;;;;-2.20;45.14;100071.69;5023896;28;20025;-62
2023/03/05 00:31:38;;;;;;;0.60;0.60;;;;;;;-2.19;45.25;100075.97;5023552;28;20095;-63
2023/03/05 00:34:11;;;;;;;0.60;0.60;;;;;;;-2.17;45.01;100076.91;5022634;28;20026;-62
2023/03/05 00:36:41;;;;;;;0.60;0.60;;;;;;;-2.14;44.90;100071.94;5022193;28;20030;-63
2023/03/05 00:39:07;;;;;;;0.70;0.70;;;;;;;-2.14;44.72;100070.25;5023196;28;20105;-63
2023/03/05 00:41:32;;;;;;;0.60;0.60;;;;;;;-2.17;44.73;100057.41;5023261;28;20259;-63
2023/03/05 00:43:58;;;;;;;0.60;0.60;;;;;;;-2.18;44.79;100055.69;5023782;28;20026;-63
2023/03/05 00:46:26;;;;;;;0.60;0.60;;;;;;;-2.20;44.92;100051.34;5023919;28;20050;-63
2023/03/05 00:48:52;;;;;;;0.60;0.60;;;;;;;-2.23;45.06;100049.56;5023513;28;20044;-63
2023/03/05 00:51:18;;;;;;;0.60;0.60;;;;;;;-2.13;45.13;100048.25;5023698;28;20025;-63
2023/03/05 00:53:43;;;;;;;0.60;0.60;;;;;;;-2.10;45.00;100043.25;5023084;28;20072;-63
2023/03/05 00:56:09;;;;;;;0.60;0.60;;;;;;;-2.05;44.98;100046.84;5023353;28;20109;-63
2023/03/05 00:58:34;;;;;;;0.65;0.65;;;;;;;-2.01;44.88;100050.34;5023290;28;20029;-63
2023/03/05 01:01:01;;;;;;;0.60;0.60;;;;;;;-1.98;44.78;100044.53;5023681;28;20478;-62
2023/03/05 01:03:27;;;;;;;0.60;0.60;;;;;;;-1.98;44.80;100040.28;5022793;28;20246;-64
2023/03/05 01:05:53;;;;;;;0.60;0.60;;;;;;;-2.03;44.66;100031.66;5023588;28;20021;-63
2023/03/05 01:08:18;;;;;;;0.60;0.60;;;;;;;-2.02;44.74;100034.25;5024013;28;20021;-64
2023/03/05 01:10:44;;;;;;;0.60;0.60;;;;;;;-2.04;44.59;100037.53;5023330;28;20026;-63
2023/03/05 01:13:09;;;;;;;0.60;0.60;;;;;;;-2.01;44.52;100040.19;5024156;28;20449;-64
2023/03/05 01:15:35;;;;;;;0.60;0.60;;;;;;;-2.04;44.63;100034.97;5023593;28;20034;-63
2023/03/05 01:18:00;;;;;;;0.60;0.60;;;;;;;-2.04;44.57;100030.78;5023629;28;20037;-62
2023/03/05 01:20:26;;;;;;;0.63;0.63;;;;;;;-2.07;44.84;100027.25;5023031;28;20109;-62
2023/03/05 01:22:52;;;;;;;0.60;0.60;;;;;;;-2.07;44.61;100024.69;5023291;28;20028;-62
2023/03/05 01:25:19;;;;;;;0.70;0.70;;;;;;;-2.11;44.71;100023.72;5023342;28;20022;-62
2023/03/05 01:27:44;;;;;;;1.95;1.88;;;;;;;-2.13;44.75;100021.13;5022674;28;20490;-62
2023/03/05 01:30:12;;;;;;;0.50;0.50;;;;;;;-2.16;44.65;100015.94;5022785;28;20038;-63
2023/03/05 01:32:37;;;;;;;0.68;0.68;;;;;;;-2.19;44.50;100010.69;5022577;28;20083;-62
2023/03/05 01:35:04;;;;;;;0.68;0.68;;;;;;;-2.21;44.64;100016.56;5023008;28;20422;-62
2023/03/05 01:37:29;;;;;;;0.60;0.60;;;;;;;-2.26;44.78;100009.63;5022816;28;20088;-62
2023/03/05 01:39:55;;;;;;;0.60;0.60;;;;;;;-2.31;44.51;100013.66;5022684;28;20022;-62
2023/03/05 01:42:20;;;;;;;0.50;0.50;;;;;;;-2.31;44.74;100000.94;5022930;28;20120;-64
2023/03/05 01:45:18;;;;;;;0.60;0.60;;;;;;;-2.29;44.75;100006.09;5023303;28;20615;-62
2023/03/05 01:47:44;;;;;;;0.60;0.60;;;;;;;-2.34;44.63;100000.84;5000181;28;20044;-63
2023/03/05 01:50:14;;;;;;;0.60;0.60;;;;;;;-2.34;44.62;100003.38;5023263;28;20045;-63
2023/03/05 01:52:45;;;;;;;0.70;0.70;;;;;;;-2.38;44.71;99999.00;5022437;28;20059;-63
2023/03/05 01:55:17;;;;;;;0.60;0.60;;;;;;;-2.37;44.69;100000.72;5022940;28;20030;-63
2023/03/05 01:57:47;;;;;;;0.70;0.70;;;;;;;-2.39;44.71;99994.72;5022631;28;20033;-64
2023/03/05 02:00:19;;;;;;;0.60;0.60;;;;;;;-2.41;44.82;99993.81;5022022;28;20026;-63
2023/03/05 02:02:47;;;;;;;0.60;0.60;;;;;;;-2.45;44.73;99986.84;5022392;28;20026;-63
2023/03/05 02:05:25;;;;;;;0.60;0.60;;;;;;;-2.45;44.75;99982.66;5021727;28;20036;-63
2023/03/05 02:07:55;;;;;;;0.60;0.60;;;;;;;-2.45;44.59;99984.31;5022309;28;20101;-63
2023/03/05 02:10:24;;;;;;;0.60;0.60;;;;;;;-2.47;44.71;99986.78;5022430;28;20099;-63
2023/03/05 02:12:51;;;;;;;0.60;0.60;;;;;;;-2.46;44.81;99985.97;5020932;28;20025;-64
2023/03/05 02:15:17;;;;;;;0.60;0.60;;;;;;;-2.47;44.91;99978.28;5022225;28;20018;-63
2023/03/05 02:17:42;;;;;;;0.70;0.70;;;;;;;-2.46;44.76;99988.53;5022356;28;20021;-63
2023/03/05 02:20:15;;;;;;;0.70;0.70;;;;;;;-2.48;44.69;99980.00;5022368;28;20101;-63
2023/03/05 02:22:41;;;;;;;0.65;0.65;;;;;;;-2.51;44.79;99980.72;5022080;28;20076;-63
2023/03/05 02:25:21;;;;;;;0.70;0.70;;;;;;;-2.56;44.72;99967.00;5022461;28;20034;-63
2023/03/05 02:27:54;;;;;;;0.70;0.70;;;;;;;-2.53;44.80;99974.72;5022265;28;20045;-63
2023/03/05 02:30:20;;;;;;;0.60;0.60;;;;;;;-2.56;44.70;99969.53;5022622;28;20072;-63
2023/03/05 02:32:45;;;;;;;0.60;0.60;;;;;;;-2.55;44.78;99978.00;5022061;28;20022;-63
2023/03/05 02:35:11;;;;;;;0.60;0.60;;;;;;;-2.59;44.61;99969.41;5022601;28;20081;-62
2023/03/05 02:37:36;;;;;;;0.60;0.60;;;;;;;-2.57;44.82;99974.56;5022520;28;20032;-63
2023/03/05 02:40:02;;;;;;;0.60;0.60;;;;;;;-2.59;44.69;99963.47;5022526;28;20068;-63
2023/03/05 02:42:29;;;;;;;0.60;0.60;;;;;;;-2.64;44.97;99966.69;5022476;28;20053;-63
2023/03/05 02:44:55;;;;;;;0.60;0.60;;;;;;;-2.64;45.03;99960.75;5022217;28;20034;-63
2023/03/05 02:47:20;;;;;;;0.60;0.60;;;;;;;-2.64;44.88;99971.78;5025247;28;20042;-63
2023/03/05 02:49:46;;;;;;;0.63;0.63;;;;;;;-2.65;44.96;99969.19;5024527;28;20037;-63
2023/03/05 02:52:11;;;;;;;0.60;0.60;;;;;;;-2.65;44.90;99966.66;5025822;28;20025;-63
2023/03/05 02:54:36;;;;;;;0.70;0.70;;;;;;;-2.64;44.75;99964.16;5025985;28;20050;-63
2023/03/05 02:57:02;;;;;;;0.70;0.70;;;;;;;-2.68;44.90;99948.72;5025778;28;20053;-62
2023/03/05 02:59:27;;;;;;;0.52;0.52;;;;;;;-2.66;44.82;99944.56;5025829;28;20022;-64
2023/03/05 03:01:54;;;;;;;0.60;0.60;;;;;;;-2.62;44.86;99954.91;5025800;28;20085;-64
2023/03/05 03:04:19;;;;;;;0.70;0.70;;;;;;;-2.62;44.76;99952.34;5026303;28;20409;-64
2023/03/05 03:06:45;;;;;;;0.60;0.60;;;;;;;-2.62;44.77;99954.06;5025893;28;20550;-62
2023/03/05 03:09:10;;;;;;;0.68;0.68;;;;;;;-2.71;44.69;99939.31;5023675;28;20021;-64
2023/03/05 03:11:36;;;;;;;0.70;0.70;;;;;;;-2.65;44.62;99951.41;5025074;28;20038;-64
2023/03/05 03:14:01;;;;;;;0.50;0.50;;;;;;;-2.66;44.76;99947.09;5025374;28;20025;-63
2023/03/05 03:16:26;;;;;;;0.60;0.60;;;;;;;-2.69;44.85;99942.78;5025604;28;20161;-63
2023/03/05 03:18:52;;;;;;;0.70;0.70;;;;;;;-2.69;44.73;99941.91;5024779;28;20026;-63
2023/03/05 03:21:20;;;;;;;0.60;0.60;;;;;;;-2.69;44.73;99931.75;5025352;28;20083;-63
2023/03/05 03:23:46;;;;;;;0.70;0.70;;;;;;;-2.71;44.75;99936.75;5025420;28;20018;-64
2023/03/05 03:26:11;;;;;;;0.70;0.70;;;;;;;-2.70;44.62;99935.09;5024645;28;20033;-63
2023/03/05 03:28:37;;;;;;;0.70;0.70;;;;;;;-2.76;44.58;99923.88;5024237;28;20045;-63
2023/03/05 03:31:02;;;;;;;0.60;0.60;;;;;;;-2.72;44.56;99931.63;5024533;28;20022;-61
2023/03/05 03:33:28;;;;;;;0.60;0.60;;;;;;;-2.73;44.76;99930.75;5024961;28;20070;-62
2023/03/05 03:35:53;;;;;;;0.70;0.70;;;;;;;-2.73;44.79;99930.75;5025178;28;20033;-62
2023/03/05 03:38:18;;;;;;;0.60;0.60;;;;;;;-2.76;44.70;99923.88;5024932;28;20025;-62
2023/03/05 03:40:44;;;;;;;0.60;0.60;;;;;;;-2.87;44.61;99914.97;5025142;28;20042;-63
2023/03/05 03:43:09;;;;;;;0.60;0.60;;;;;;;-2.82;44.62;99925.31;5024870;28;20021;-62
2023/03/05 03:45:39;;;;;;;0.68;0.68;;;;;;;-2.83;44.67;99927.00;5023206;28;20056;-64
2023/03/05 03:48:05;;;;;;;0.70;0.70;;;;;;;-2.87;44.59;99920.06;5024866;28;20048;-61
2023/03/05 03:50:30;;;;;;;0.70;0.70;;;;;;;-2.89;44.48;99925.09;5024909;28;20018;-63
2023/03/05 03:52:55;;;;;;;0.60;0.60;;;;;;;-2.92;44.58;99922.44;5024345;28;20121;-62
2023/03/05 03:55:21;;;;;;;0.70;0.70;;;;;;;-2.93;44.75;99919.84;5024724;28;20041;-63
2023/03/05 03:57:46;;;;;;;0.60;0.60;;;;;;;-2.95;44.70;99924.84;5023884;28;20025;-62
2023/03/05 04:00:12;;;;;;;0.70;0.70;;;;;;;-2.96;44.86;99923.13;5024752;28;20026;-62
2023/03/05 04:02:38;;;;;;;0.60;0.60;;;;;;;-2.96;44.84;99923.13;5025205;28;20100;-62
2023/03/05 04:05:05;;;;;;;0.65;0.65;;;;;;;-2.95;44.76;99913.81;5025218;28;20493;-61
2023/03/05 04:07:30;;;;;;;0.60;0.60;;;;;;;-2.95;44.74;99911.28;5025105;28;20030;-62
2023/03/05 04:09:55;;;;;;;0.60;0.60;;;;;;;-2.99;44.90;99916.22;5025135;28;20026;-63
2023/03/05 04:12:21;;;;;;;0.60;0.60;;;;;;;-2.97;44.77;99912.91;5024972;28;20112;-62
2023/03/05 04:14:47;;;;;;;0.70;0.70;;;;;;;-2.98;44.81;99912.03;5025384;28;20029;-63
2023/03/05 04:17:14;;;;;;;0.70;0.70;;;;;;;-3.01;44.93;99900.09;5024973;28;20025;-62
2023/03/05 04:19:40;;;;;;;0.60;0.60;;;;;;;-2.97;44.87;99898.50;5025198;28;20030;-62
2023/03/05 04:22:10;;;;;;;0.68;0.68;;;;;;;-2.94;44.79;99898.63;5025327;28;20037;-63
2023/03/05 04:24:35;;;;;;;0.70;0.70;;;;;;;-2.92;44.79;99898.69;5024865;28;20022;-63
2023/03/05 04:27:01;;;;;;;0.60;0.60;;;;;;;-2.93;44.80;99900.38;5024784;28;20529;-63
2023/03/05 04:29:26;;;;;;;0.70;0.70;;;;;;;-2.94;44.76;99890.16;5025174;28;20497;-63
2023/03/05 04:31:51;;;;;;;0.70;0.70;;;;;;;-2.96;44.70;99889.22;5024808;28;20026;-64
2023/03/05 04:34:17;;;;;;;0.60;0.60;;;;;;;-2.97;44.80;99893.44;5024118;28;20057;-64
2023/03/05 04:36:43;;;;;;;0.60;0.60;;;;;;;-2.99;44.77;99893.38;5024935;28;20032;-64
2023/03/05 04:39:08;;;;;;;0.70;0.70;;;;;;;-2.99;44.77;99900.16;5025667;28;20086;-62
2023/03/05 04:41:34;;;;;;;0.70;0.70;;;;;;;-2.99;44.98;99897.63;5024868;28;20025;-63
2023/03/05 04:43:59;;;;;;;0.70;0.70;;;;;;;-3.00;44.89;99898.41;5025083;28;20021;-63
2023/03/05 04:46:24;;;;;;;0.60;0.60;;;;;;;-2.95;44.80;99893.50;5024288;28;20025;-64
2023/03/05 04:48:50;;;;;;;0.60;0.60;;;;;;;-2.93;44.75;99899.50;5022341;28;20033;-64
2023/03/05 04:51:15;;;;;;;0.60;0.60;;;;;;;-2.86;44.68;99891.31;5023674;28;20041;-63
2023/03/05 04:53:41;;;;;;;0.60;0.60;;;;;;;-2.87;44.96;99880.28;5023660;28;20076;-64
2023/03/05 04:56:06;;;;;;;0.70;0.70;;;;;;;-2.79;44.77;99887.31;5023684;28;20026;-64
2023/03/05 04:58:32;;;;;;;0.60;0.60;;;;;;;-2.81;44.60;99892.34;5023613;28;20029;-63
2023/03/05 05:01:01;;;;;;;0.60;0.60;;;;;;;-2.77;44.49;99891.66;5023827;28;20044;-65
2023/03/05 05:03:27;;;;;;;0.57;0.57;;;;;;;-2.78;44.58;99895.00;5023438;28;20036;-63
2023/03/05 05:05:54;;;;;;;0.70;0.70;;;;;;;-2.78;44.70;99896.69;5022340;28;20053;-63
2023/03/05 05:08:20;;;;;;;0.60;0.60;;;;;;;-2.79;44.53;99889.88;5024514;28;20029;-63
2023/03/05 05:11:04;;;;;;;0.70;0.70;;;;;;;-2.79;44.73;99898.34;5023868;28;20032;-64
2023/03/05 05:13:30;;;;;;;0.60;0.60;;;;;;;-2.80;44.70;99898.31;5023971;28;20026;-62
2023/03/05 05:15:56;;;;;;;0.50;0.50;;;;;;;-2.79;44.61;99894.94;5024043;28;20045;-63
2023/03/05 05:18:23;;;;;;;0.60;0.60;;;;;;;-2.85;44.70;99893.06;5023606;28;20042;-62
2023/03/05 05:20:48;;;;;;;0.60;0.60;;;;;;;-2.83;44.72;99888.91;5023636;28;20018;-64
2023/03/05 05:23:14;;;;;;;0.57;0.57;;;;;;;-2.87;44.57;99889.56;5022888;28;20109;-62
2023/03/05 05:25:40;;;;;;;0.70;0.70;;;;;;;-2.89;44.59;99888.69;5020808;28;20026;-62
2023/03/05 05:28:05;;;;;;;0.60;0.60;;;;;;;-2.92;44.64;99889.41;5022438;28;20018;-63
2023/03/05 05:30:31;;;;;;;0.60;0.60;;;;;;;-2.94;44.58;99885.09;5022411;28;20029;-63
2023/03/05 05:32:56;;;;;;;0.60;0.60;;;;;;;-2.95;44.66;99893.50;5023087;28;20074;-63
2023/03/05 05:35:22;;;;;;;0.60;0.60;;;;;;;-2.97;44.47;99890.06;5022940;28;20482;-63
2023/03/05 05:37:47;;;;;;;0.60;0.60;;;;;;;-3.01;44.54;99886.50;5022936;28;20021;-63
2023/03/05 05:40:13;;;;;;;0.60;0.60;;;;;;;-3.07;44.72;99876.13;5022996;28;20018;-63
2023/03/05 05:42:38;;;;;;;0.60;0.60;;;;;;;-3.03;44.74;99886.47;5022391;28;20030;-63
2023/03/05 05:45:04;;;;;;;0.60;0.60;;;;;;;-3.03;44.49;99885.59;5020635;28;20133;-63
2023/03/05 05:47:30;;;;;;;0.68;0.68;;;;;;;-3.02;44.63;99887.34;5020269;28;20037;-63
2023/03/05 05:49:55;;;;;;;0.50;0.50;;;;;;;-3.02;44.57;99874.63;5021992;28;20022;-63
2023/03/05 05:52:21;;;;;;;0.60;0.60;;;;;;;-2.99;44.71;99879.84;5022780;28;20125;-62
2023/03/05 05:54:47;;;;;;;0.60;0.60;;;;;;;-2.96;44.61;99876.53;5022265;28;20121;-63
2023/03/05 05:57:13;;;;;;;0.60;0.60;;;;;;;-2.97;44.74;99883.28;5022342;28;20030;-62
2023/03/05 05:59:40;;;;;;;0.60;0.60;;;;;;;-2.91;44.53;99877.56;5022612;28;20025;-62
2023/03/05 06:02:06;;;;;;;0.65;0.65;;;;;;;-2.92;44.63;99883.44;5022647;28;20026;-64
2023/03/05 06:04:33;;;;;;;0.65;0.65;;;;;;;-2.87;44.62;99893.00;5021001;28;20060;-63
2023/03/05 06:06:59;;;;;;;0.65;0.65;;;;;;;-2.81;44.51;99886.41;5022135;28;20026;-62
2023/03/05 06:09:24;;;;;;;0.60;0.60;;;;;;;-2.78;44.59;99884.00;5022502;28;20061;-63
2023/03/05 06:11:50;;;;;;;0.70;0.70;;;;;;;-2.75;44.49;99887.50;5022124;28;20070;-63
2023/03/05 06:14:16;;;;;;;0.60;0.60;;;;;;;-2.69;44.54;99880.91;5022508;28;20437;-63
2023/03/05 06:16:42;;;;;;;0.60;0.60;;;;;;;-2.66;44.49;99878.47;5022679;28;20018;-63
2023/03/05 06:19:14;;;;;;;0.60;0.60;;;;;;;-2.63;44.29;99883.69;5022700;28;20049;-63
2023/03/05 06:21:42;;;;;;;0.60;0.60;;;;;;;-2.62;44.57;99885.44;5024636;28;20084;-63
2023/03/05 06:24:08;;;;;;;0.60;0.60;;;;;;;-2.61;44.38;99882.06;5026458;28;20586;-63
2023/03/05 06:26:34;;;;;;;0.60;0.60;;;;;;;-2.55;44.47;99882.28;5027578;28;20089;-63
2023/03/05 06:29:02;;;;;;;0.63;0.63;;;;;;;-2.53;44.63;99883.22;5025472;28;20102;-65
2023/03/05 06:31:29;;;;;;;0.60;0.60;;;;;;;-2.52;44.35;99877.31;5027261;28;20061;-62
2023/03/05 06:33:57;;;;;;;0.60;0.60;;;;;;;-2.45;44.23;99880.97;5026869;28;20309;-63
2023/03/05 06:36:24;;;;;;;0.70;0.70;;;;;;;-2.38;44.48;99882.03;5026818;28;20124;-62
2023/03/05 06:38:50;;;;;;;0.60;0.60;;;;;;;-2.31;44.39;99876.34;5026758;28;20018;-63
2023/03/05 06:41:18;;;;;;;0.70;0.70;;;;;;;-2.15;44.41;99867.59;5026591;28;20021;-63
2023/03/05 06:43:45;;;;;;;0.70;0.70;;;;;;;-1.80;44.96;99868.72;5026768;28;20042;-64
2023/03/05 06:46:13;;;;;;;0.60;0.60;;;;;;;-1.16;45.24;99863.09;5025320;28;20033;-64
2023/03/05 06:48:39;;;;;;;0.60;0.60;;;;;;;-0.22;45.29;99869.16;5026486;28;20049;-63
2023/03/05 06:51:14;;;;;;;1.90;1.80;;;;;;;0.67;44.69;99868.78;5026347;28;20026;-69
2023/03/05 06:53:39;;;;;;;0.60;0.60;;;;;;;1.55;44.07;99865.56;5026455;28;20530;-62
2023/03/05 06:56:05;;;;;;;0.60;0.60;;;;;;;2.37;43.94;99863.59;5026231;28;20030;-62
2023/03/05 06:58:30;;;;;;;0.50;0.50;;;;;;;3.16;42.01;99858.78;5026400;28;20098;-63
2023/03/05 07:00:56;;;;;;;0.60;0.60;;;;;;;3.82;42.01;99862.06;5026588;28;20033;-61
2023/03/05 07:03:21;;;;;;;0.50;0.50;;;;;;;4.27;41.02;99859.06;5026819;28;20062;-62
2023/03/05 07:05:46;;;;;;;0.50;0.50;;;;;;;4.70;41.16;99861.09;5026951;28;20462;-62
2023/03/05 07:08:12;;;;;;;0.50;0.50;;;;;;;5.23;40.82;99863.13;5025858;28;20033;-61
2023/03/05 07:10:40;;;;;;;0.50;0.50;;;;;;;5.86;39.68;99857.34;5025410;28;20026;-62
2023/03/05 07:13:06;;;;;;;0.50;0.50;;;;;;;5.98;35.47;99848.78;5024890;28;20045;-61
2023/03/05 07:15:32;;;;;;;0.50;0.50;;;;;;;6.01;34.99;99848.78;5025190;28;20037;-61
2023/03/05 07:17:57;;;;;;;0.65;0.65;;;;;;;5.82;33.03;99851.34;5025222;28;20394;-61
2023/03/05 07:20:22;;;;;;;0.50;0.50;;;;;;;5.80;33.85;99839.28;5026143;28;20080;-63
2023/03/05 07:22:48;;;;;;;0.50;0.50;;;;;;;5.90;33.59;99848.78;5024493;28;20037;-65
2023/03/05 07:25:18;;;;;;;0.50;0.50;;;;;;;6.07;32.88;99851.38;5026030;28;20340;-63
2023/03/05 07:27:43;;;;;;;0.50;0.50;;;;;;;6.08;33.10;99854.84;5025191;28;20026;-62
2023/03/05 07:30:09;;;;;;;0.50;0.50;;;;;;;6.24;32.44;99850.56;5024975;28;20033;-62
2023/03/05 07:32:35;;;;;;;0.47;0.47;;;;;;;6.20;32.45;99849.69;5024541;28;20026;-62
2023/03/05 07:35:00;;;;;;;0.50;0.50;;;;;;;6.03;31.38;99848.78;5025868;28;20129;-62
2023/03/05 07:37:26;;;;;;;0.50;0.50;;;;;;;5.76;31.69;99850.44;5024411;28;20061;-62
2023/03/05 07:39:51;;;;;;;0.50;0.50;;;;;;;5.66;31.73;99857.28;5024387;28;20030;-61
2023/03/05 07:42:17;;;;;;;0.60;0.60;;;;;;;5.61;31.78;99853.84;5025322;28;20029;-62
2023/03/05 07:44:42;;;;;;;0.50;0.50;;;;;;;5.42;31.43;99849.50;5025430;28;20514;-61
2023/03/05 07:47:07;;;;;;;0.50;0.50;;;;;;;5.17;30.09;99854.53;5024002;28;20132;-61
2023/03/05 07:49:34;;;;;;;0.50;0.50;;;;;;;4.94;31.12;99855.28;5024985;28;20028;-61
2023/03/05 07:51:59;;;;;;;0.50;0.50;;;;;;;4.92;30.85;99854.38;5024769;28;20037;-62
2023/03/05 07:54:25;;;;;;;0.50;0.50;;;;;;;4.86;30.29;99859.50;5026168;28;20053;-63
2023/03/05 07:56:54;;;;;;;0.50;0.50;;;;;;;4.73;30.34;99858.56;5025663;28;20025;-63
2023/03/05 07:59:19;;;;;;;0.50;0.50;;;;;;;4.66;30.48;99846.53;5025650;28;20022;-62
2023/03/05 08:01:45;;;;;;;0.60;0.60;;;;;;;4.52;30.00;99838.72;5025494;28;20029;-62
2023/03/05 08:04:13;;;;;;;0.50;0.50;;;;;;;4.46;30.12;99845.53;5025430;28;20049;-62
2023/03/05 08:06:40;;;;;;;0.50;0.50;;;;;;;4.49;29.52;99838.69;5024694;28;20045;-63
2023/03/05 08:09:06;;;;;;;0.50;0.50;;;;;;;4.57;30.60;99842.16;5026017;28;20096;-65
2023/03/05 08:11:32;;;;;;;0.50;0.50;;;;;;;4.91;29.81;99841.53;5026559;28;20021;-64
2023/03/05 08:13:58;;;;;;;0.50;0.50;;;;;;;4.85;28.81;99832.06;5024142;28;20036;-62
2023/03/05 08:16:25;;;;;;;0.40;0.40;;;;;;;4.78;29.54;99838.88;5025825;28;20600;-64
2023/03/05 08:18:54;;;;;;;0.50;0.50;;;;;;;4.86;29.38;99836.34;5024848;28;20034;-66
2023/03/05 08:21:32;;;;;;;0.50;0.50;;;;;;;4.95;29.53;99830.41;5024648;28;20024;-65
2023/03/05 08:23:59;;;;;;;0.50;0.50;;;;;;;5.17;29.68;99831.38;5024525;28;20054;-64
2023/03/05 08:26:27;;;;;;;0.50;0.50;;;;;;;5.62;27.86;99828.09;5025366;28;20030;-65
2023/03/05 08:28:53;;;;;;;0.50;0.50;;;;;;;5.90;27.65;99816.97;5024650;28;20056;-65
2023/03/05 08:31:21;;;;;;;0.50;0.50;;;;;;;5.99;27.11;99818.72;5024952;28;20026;-66
2023/03/05 08:33:52;;;;;;;0.50;0.50;;;;;;;6.08;27.07;99813.59;5025151;28;20044;-65
2023/03/05 08:36:18;;;;;;;0.50;0.50;;;;;;;6.31;27.20;99826.47;5025340;28;20022;-65
2023/03/05 08:38:45;;;;;;;0.50;0.50;;;;;;;6.88;27.81;99821.25;5025278;28;20017;-66
2023/03/05 08:41:17;;;;;;;0.50;0.50;;;;;;;7.50;26.91;99815.84;5025696;28;20018;-66
2023/03/05 08:43:42;;;;;;;;;;;;;;;7.62;25.08;99799.41;5025137;28;20089;-64
2023/03/05 08:46:12;;;;;;;0.50;0.50;;;;;;;7.83;25.46;99807.06;5025861;28;19910;-65
2023/03/05 08:48:38;;;;;;;0.50;0.50;;;;;;;7.81;25.31;99807.06;5027374;28;20085;-65
2023/03/05 08:51:09;;;;;;;0.40;0.40;;;;;;;7.97;25.96;99799.19;5026654;28;20493;-64
2023/03/05 08:53:34;;;;;;;0.50;0.50;;;;;;;8.79;26.78;99802.78;5025686;28;20049;-65
2023/03/05 08:56:00;;;;;;;0.40;0.40;;;;;;;9.59;26.18;99802.69;5025213;28;20025;-64
2023/03/05 08:58:25;;;;;;;0.40;0.40;;;;;;;10.10;26.31;99797.59;5024087;28;20030;-65
2023/03/05 09:00:51;;;;;;;0.50;0.50;;;;;;;10.62;26.47;99785.47;5024321;28;20022;-65
2023/03/05 09:03:17;;;;;;;0.40;0.40;;;;;;;11.14;25.38;99784.50;5024763;28;20045;-65
2023/03/05 09:05:43;;;;;;;0.40;0.40;;;;;;;11.06;23.99;99779.44;5025746;28;20026;-64
2023/03/05 09:08:12;;;;;;;0.43;0.43;;;;;;;10.54;23.80;99779.59;5025593;28;20049;-65
2023/03/05 09:10:37;;;;;;;0.40;0.40;;;;;;;10.19;24.55;99770.66;5025364;28;20029;-66
2023/03/05 09:13:03;;;;;;;0.40;0.40;;;;;;;10.19;24.79;99776.72;5025182;28;20026;-66
2023/03/05 09:15:29;;;;;;;0.40;0.40;;;;;;;10.70;26.05;99768.91;5025123;28;20029;-64
2023/03/05 09:17:55;;;;;;;0.40;0.40;;;;;;;11.09;25.51;99766.41;5024605;28;20033;-65
2023/03/05 09:20:21;;;;;;;0.40;0.40;;;;;;;11.56;25.82;99757.59;5025299;28;20050;-65
2023/03/05 09:22:46;;;;;;;0.40;0.40;;;;;;;12.17;25.97;99773.53;5025052;28;20034;-66
2023/03/05 09:25:11;;;;;;;0.30;0.30;;;;;;;12.50;25.14;99761.41;5025242;28;20036;-65
2023/03/05 09:27:37;;;;;;;0.30;0.30;;;;;;;12.90;24.76;99763.78;5024930;28;20056;-65
2023/03/05 09:30:04;;;;;;;0.30;0.30;;;;;;;12.87;24.01;99759.53;5023079;28;20056;-64
2023/03/05 09:32:30;;;;;;;0.30;0.30;;;;;;;12.23;21.46;99757.75;5024831;28;20097;-64
2023/03/05 09:34:57;;;;;;;0.30;0.30;;;;;;;11.66;22.63;99755.66;5024466;28;20109;-65
2023/03/05 09:37:22;;;;;;;0.30;0.30;;;;;;;11.86;23.15;99755.16;5024806;28;20029;-65
2023/03/05 09:39:48;;;;;;;0.40;0.40;;;;;;;12.06;22.12;99745.16;5025031;28;20033;-65
2023/03/05 09:42:41;;;;;;;0.60;0.60;;;;;;;12.03;23.03;99744.34;5024783;28;20045;-66
2023/03/05 09:45:25;;;;;;;0.40;0.40;;;;;;;12.85;24.05;99742.22;5025157;28;20026;-64
2023/03/05 09:47:56;;;;;;;0.40;0.40;;;;;;;13.78;23.53;99742.94;5025023;28;20058;-64
2023/03/05 09:50:22;;;;;;;0.40;0.40;;;;;;;14.57;23.55;99749.88;5024814;28;20026;-65
2023/03/05 09:52:58;;;;;;;0.30;0.30;;;;;;;15.08;22.84;99734.13;5023848;28;20050;-65
2023/03/05 09:55:34;;;;;;;0.30;0.30;;;;;;;15.40;22.09;99736.41;5024788;28;20053;-65
2023/03/05 09:58:10;;;;;;;0.30;0.30;;;;;;;15.61;21.87;99727.69;5027293;28;20022;-64
2023/03/05 10:00:48;;;;;;;0.30;0.30;;;;;;;15.82;21.59;99730.34;5029252;28;20242;-65
2023/03/05 10:03:26;;;;;;;0.20;0.20;;;;;;;16.02;22.01;99730.47;5029275;28;20383;-64
2023/03/05 10:06:04;;;;;;;0.30;0.30;;;;;;;16.26;21.16;99725.97;5028749;28;20030;-66
2023/03/05 10:08:54;;;;;;;0.30;0.30;;;;;;;16.37;21.01;99722.88;5027643;28;20029;-65
2023/03/05 10:11:25;;;;;;;0.30;0.30;;;;;;;16.78;21.17;99715.84;5028411;28;20018;-64
2023/03/05 10:13:51;;;;;;;0.40;0.40;;;;;;;17.12;20.42;99721.31;5028400;28;20045;-65
2023/03/05 10:16:58;;;;;;;0.30;0.30;;;;;;;17.64;20.46;99719.72;5030218;28;20414;-66
2023/03/05 10:19:44;;;;;;;0.40;0.40;;;;;;;18.03;20.28;99713.44;5008831;28;20101;-64
2023/03/05 10:22:19;;;;;;;0.30;0.30;;;;;;;18.33;19.22;99710.19;5026886;28;20069;-65
2023/03/05 10:25:16;;;;;;;0.30;0.30;;;;;;;18.05;18.98;99719.44;5028577;28;20044;-65
2023/03/05 10:27:49;;;;;;;0.30;0.30;;;;;;;18.10;18.54;99713.94;5028299;28;20037;-65
2023/03/05 10:30:31;;;;;;;1.25;1.20;;;;;;;17.98;19.46;99704.06;5028381;28;20022;-66
2023/03/05 10:33:15;;;;;;;;;;;;;;;18.00;19.42;99696.97;5028776;28;20029;-66
2023/03/05 10:35:46;;;;;;;0.30;0.30;;;;;;;18.00;19.73;99697.84;5027995;28;19916;-66
2023/03/05 10:38:27;;;;;;;0.40;0.40;;;;;;;17.89;20.42;99700.16;5026975;28;20386;-65
2023/03/05 10:40:57;;;;;;;0.30;0.30;;;;;;;17.79;20.09;99700.63;5027202;28;20109;-66
2023/03/05 10:43:41;;;;;;;0.30;0.30;;;;;;;17.60;20.24;99700.69;5027870;28;20037;-66
2023/03/05 10:46:19;;;;;;;0.30;0.30;;;;;;;17.05;20.86;99702.38;5027906;28;20018;-65
2023/03/05 10:48:59;;;;;;;0.30;0.30;;;;;;;17.02;20.60;99695.50;5027440;28;20026;-65
2023/03/05 10:51:43;;;;;;;0.20;0.20;;;;;;;16.60;19.38;99700.88;5028006;28;20022;-66
2023/03/05 10:54:14;;;;;;;0.30;0.30;;;;;;;16.13;20.68;99695.97;5027475;28;20053;-66
2023/03/05 10:56:39;;;;;;;0.40;0.40;;;;;;;16.26;20.21;99699.78;5028146;28;20035;-65
2023/03/05 10:59:05;;;;;;;0.30;0.30;;;;;;;15.83;19.83;99699.81;5027882;28;20026;-65
2023/03/05 11:01:31;;;;;;;0.30;0.30;;;;;;;15.48;20.55;99695.09;5027950;28;20462;-64
2023/03/05 11:04:23;;;;;;;0.30;0.30;;;;;;;15.33;20.96;99693.94;5027686;28;20097;-64
2023/03/05 11:06:49;;;;;;;0.30;0.30;;;;;;;15.26;20.89;99688.09;5027607;28;20031;-64
2023/03/05 11:09:31;;;;;;;0.30;0.30;;;;;;;15.22;20.84;99691.75;5027651;28;20084;-66
2023/03/05 11:12:07;;;;;;;0.30;0.30;;;;;;;15.16;20.44;99685.00;5028000;28;20026;-65
2023/03/05 11:14:34;;;;;;;0.30;0.30;;;;;;;15.20;20.39;99683.13;5028078;28;20037;-65
2023/03/05 11:17:02;;;;;;;0.68;0.68;;;;;;;15.16;20.38;99678.94;5027880;28;20474;-64
2023/03/05 11:19:33;;;;;;;0.30;0.30;;;;;;;15.27;20.64;99666.25;5026955;28;20072;-65
2023/03/05 11:22:24;;;;;;;0.30;0.30;;;;;;;15.38;20.42;99678.94;5027673;28;20020;-65
2023/03/05 11:25:05;;;;;;;0.40;0.40;;;;;;;15.74;20.68;99680.94;5026481;28;20046;-66
2023/03/05 11:27:35;;;;;;;0.30;0.30;;;;;;;15.89;19.26;99677.75;5026602;28;20084;-64
2023/03/05 11:30:02;;;;;;;0.30;0.30;;;;;;;15.36;20.13;99681.59;5027324;28;20074;-64
2023/03/05 11:32:28;;;;;;;0.30;0.30;;;;;;;15.34;20.34;99678.19;5027545;28;20112;-66
2023/03/05 11:34:55;;;;;;;0.30;0.30;;;;;;;15.40;20.34;99671.03;5027230;28;20018;-66
2023/03/05 11:37:31;;;;;;;0.30;0.30;;;;;;;15.44;20.66;99673.44;5027218;28;20052;-65
2023/03/05 11:40:19;;;;;;;0.40;0.40;;;;;;;14.24;20.50;99670.94;5027002;28;20494;-64